Time;durP1;ratioP1;P1;durP2;ratioP2;P2;SDS_P1;SDS_P2;PMS_P1;PMS_P2;Temp;Humidity;BMP_temperature;BMP_pressure;BME280_temperature;BME280_humidity;BME280_pressure;Samples;Min_cycle;Max_cycle;Signal;HPM_P1;HPM_P2
2022/07/07 00:01:10;;;;;;;1.73;1.13;;;13.70;96.40;;;;;;5000084;28;20279;-83
2022/07/07 00:03:36;;;;;;;1.10;1.00;;;13.70;96.50;;;;;;5000202;28;20201;-83
2022/07/07 00:06:01;;;;;;;0.80;0.80;;;13.70;96.70;;;;;;4998907;28;20770;-82
2022/07/07 00:08:27;;;;;;;1.37;1.00;;;13.70;96.90;;;;;;4999519;28;20201;-83
2022/07/07 00:10:53;;;;;;;1.20;1.10;;;13.70;96.80;;;;;;4999647;28;20461;-82
2022/07/07 00:13:19;;;;;;;1.10;1.00;;;13.70;96.90;;;;;;4999944;28;20647;-82
2022/07/07 00:15:45;;;;;;;1.10;1.00;;;13.70;96.90;;;;;;4999981;28;20187;-83
2022/07/07 00:18:11;;;;;;;1.00;0.90;;;13.70;97.00;;;;;;5003856;28;20707;-83
2022/07/07 00:20:37;;;;;;;1.00;0.90;;;13.70;97.10;;;;;;5005186;28;20492;-83
2022/07/07 00:23:03;;;;;;;1.20;1.10;;;13.70;97.30;;;;;;5017518;28;20447;-81
2022/07/07 00:25:29;;;;;;;1.30;1.20;;;13.70;97.30;;;;;;4998333;28;20204;-83
2022/07/07 00:27:54;;;;;;;1.00;0.90;;;13.70;97.30;;;;;;4998301;28;20201;-82
2022/07/07 00:30:20;;;;;;;1.03;0.97;;;13.70;97.20;;;;;;4998642;28;20181;-82
2022/07/07 00:32:46;;;;;;;1.57;1.30;;;13.70;97.10;;;;;;4998962;28;20682;-81
2022/07/07 00:35:12;;;;;;;1.10;1.00;;;13.70;97.10;;;;;;4999075;28;20197;-82
2022/07/07 00:37:37;;;;;;;1.00;1.00;;;13.80;97.30;;;;;;5017191;28;20468;-82
2022/07/07 00:40:04;;;;;;;1.13;1.03;;;13.80;97.30;;;;;;4999346;28;20196;-82
2022/07/07 00:42:29;;;;;;;1.03;0.93;;;13.80;97.10;;;;;;5016545;28;20221;-82
2022/07/07 00:44:55;;;;;;;0.90;0.90;;;13.80;97.30;;;;;;4999192;28;20460;-83
2022/07/07 00:47:21;;;;;;;0.87;0.83;;;13.80;97.30;;;;;;4999188;28;21286;-83
2022/07/07 00:49:47;;;;;;;1.20;1.10;;;13.80;97.30;;;;;;4998505;28;20276;-82
2022/07/07 00:52:13;;;;;;;0.97;0.87;;;13.80;97.30;;;;;;4999063;28;20205;-82
2022/07/07 00:54:39;;;;;;;1.00;0.90;;;13.80;97.30;;;;;;5000112;28;20435;-82
2022/07/07 00:57:05;;;;;;;1.10;1.00;;;13.90;97.30;;;;;;5003182;28;20440;-83
2022/07/07 00:59:34;;;;;;;1.10;1.00;;;13.90;97.30;;;;;;5019758;28;20423;-83
2022/07/07 01:02:01;;;;;;;1.10;1.00;;;14.00;97.30;;;;;;5002657;28;20460;-82
2022/07/07 01:04:27;;;;;;;1.30;1.20;;;14.00;97.30;;;;;;5002286;28;20424;-82
2022/07/07 01:06:53;;;;;;;1.03;0.93;;;14.00;97.30;;;;;;4999487;28;20518;-82
2022/07/07 01:09:19;;;;;;;0.90;0.80;;;14.10;97.30;;;;;;4998378;28;20204;-82
2022/07/07 01:11:47;;;;;;;1.00;0.90;;;14.10;97.30;;;;;;4998341;28;20440;-82
2022/07/07 01:14:13;;;;;;;1.30;1.20;;;14.10;97.30;;;;;;5016402;28;20499;-82
2022/07/07 01:16:39;;;;;;;0.80;0.80;;;14.20;97.20;;;;;;4998862;28;20452;-82
2022/07/07 01:19:05;;;;;;;0.93;0.87;;;14.20;96.70;;;;;;4998394;28;20221;-82
2022/07/07 01:21:33;;;;;;;1.00;0.90;;;14.20;95.80;;;;;;4998693;28;20189;-82
2022/07/07 01:23:59;;;;;;;0.97;0.93;;;14.20;95.20;;;;;;4999287;28;20430;-82
2022/07/07 01:26:26;;;;;;;1.10;1.00;;;14.30;94.90;;;;;;5000170;28;20550;-83
2022/07/07 01:28:52;;;;;;;0.80;0.80;;;14.30;94.50;;;;;;5001392;28;20212;-82
2022/07/07 01:31:18;;;;;;;1.00;0.90;;;14.30;94.40;;;;;;5002043;28;20424;-83
2022/07/07 01:33:43;;;;;;;1.00;0.90;;;14.30;94.20;;;;;;5001816;28;20878;-82
2022/07/07 01:36:13;;;;;;;1.00;0.90;;;14.30;94.30;;;;;;4999653;28;21290;-83
2022/07/07 01:38:38;;;;;;;1.00;0.90;;;14.30;94.40;;;;;;4998226;28;20269;-83
2022/07/07 01:41:04;;;;;;;1.10;1.00;;;14.30;94.60;;;;;;4998837;28;20452;-83
2022/07/07 01:43:29;;;;;;;1.07;1.00;;;14.40;94.90;;;;;;4996237;28;20262;-81
2022/07/07 01:45:55;;;;;;;1.10;1.07;;;14.40;95.20;;;;;;4989062;28;20213;-82
2022/07/07 01:48:22;;;;;;;1.00;0.90;;;14.40;95.70;;;;;;4999321;28;20207;-82
2022/07/07 01:50:47;;;;;;;0.80;0.80;;;14.40;96.70;;;;;;4999581;28;20181;-82
2022/07/07 01:53:13;;;;;;;1.00;0.90;;;14.30;97.30;;;;;;5002485;28;20438;-82
2022/07/07 01:55:39;;;;;;;1.10;1.00;;;14.30;97.30;;;;;;5002303;28;20591;-81
2022/07/07 01:58:04;;;;;;;0.80;0.80;;;14.20;97.30;;;;;;5003320;28;20205;-80
2022/07/07 02:00:30;;;;;;;1.10;1.00;;;14.20;97.30;;;;;;4991162;28;20177;-82
2022/07/07 02:02:55;;;;;;;1.03;0.93;;;14.10;97.30;;;;;;5002774;28;20185;-81
2022/07/07 02:05:21;;;;;;;1.10;1.00;;;14.00;97.30;;;;;;5002765;28;20209;-82
2022/07/07 02:07:48;;;;;;;1.10;1.00;;;14.00;97.30;;;;;;4999340;28;20216;-81
2022/07/07 02:11:12;;;;;;;1.00;0.90;;;13.90;97.30;;;;;;5014969;28;20170;-81
2022/07/07 02:12:59;;;;;;;1.10;1.00;;;13.80;97.30;;;;;;5014535;28;20432;-81
2022/07/07 02:15:25;;;;;;;1.00;0.90;;;13.80;97.30;;;;;;4997678;28;20428;-80
2022/07/07 02:17:51;;;;;;;1.10;1.00;;;13.80;97.30;;;;;;4996884;28;20272;-79
2022/07/07 02:20:16;;;;;;;1.10;1.00;;;13.90;97.30;;;;;;4997010;28;20268;-81
2022/07/07 02:22:42;;;;;;;1.20;1.10;;;13.90;97.30;;;;;;4997096;28;20188;-81
2022/07/07 02:25:07;;;;;;;0.80;0.80;;;13.90;97.30;;;;;;5003696;28;20675;-81
2022/07/07 02:27:33;;;;;;;1.00;0.97;;;13.90;97.30;;;;;;4996513;28;20193;-80
2022/07/07 02:29:59;;;;;;;1.10;1.00;;;13.90;97.30;;;;;;5015059;28;20193;-81
2022/07/07 02:32:24;;;;;;;0.90;0.80;;;14.00;97.30;;;;;;4996761;28;20180;-82
2022/07/07 02:34:50;;;;;;;1.20;1.13;;;14.00;97.30;;;;;;4996621;28;20181;-80
2022/07/07 02:37:15;;;;;;;1.50;1.30;;;14.00;97.30;;;;;;4998561;28;20205;-79
2022/07/07 02:39:41;;;;;;;1.07;0.97;;;14.00;97.30;;;;;;5001081;28;20223;-79
2022/07/07 02:42:06;;;;;;;1.10;1.00;;;14.00;97.30;;;;;;5000750;28;20545;-80
2022/07/07 02:44:32;;;;;;;1.00;1.00;;;14.00;97.30;;;;;;5001023;28;20200;-79
2022/07/07 02:46:57;;;;;;;1.00;0.90;;;14.00;97.30;;;;;;5001467;28;20211;-80
2022/07/07 02:49:23;;;;;;;0.80;0.80;;;14.00;97.30;;;;;;5002417;28;20265;-79
2022/07/07 02:51:48;;;;;;;1.00;0.90;;;14.00;97.30;;;;;;5004944;28;20545;-80
2022/07/07 02:54:14;;;;;;;1.10;1.00;;;14.00;97.30;;;;;;5005403;28;20228;-79
2022/07/07 02:56:40;;;;;;;1.00;0.90;;;14.00;97.30;;;;;;5003836;28;20649;-80
2022/07/07 02:59:05;;;;;;;1.57;1.47;;;14.00;97.30;;;;;;5003744;28;20620;-79
2022/07/07 03:01:31;;;;;;;1.00;0.97;;;14.00;97.30;;;;;;4999808;28;20241;-79
2022/07/07 03:03:56;;;;;;;0.73;0.73;;;14.00;97.30;;;;;;4999374;28;20188;-79
2022/07/07 03:06:22;;;;;;;1.00;0.90;;;14.00;97.30;;;;;;4999571;28;20233;-80
2022/07/07 03:08:47;;;;;;;1.00;0.90;;;14.00;97.30;;;;;;4999578;28;20194;-80
2022/07/07 03:11:13;;;;;;;1.03;0.93;;;14.00;97.30;;;;;;4999421;28;20189;-79
2022/07/07 03:13:38;;;;;;;1.00;0.90;;;14.00;97.30;;;;;;4999404;28;20174;-79
2022/07/07 03:16:04;;;;;;;0.93;0.90;;;14.00;97.30;;;;;;4999062;28;20240;-79
2022/07/07 03:18:30;;;;;;;1.00;0.90;;;14.00;97.30;;;;;;4998844;28;20264;-79
2022/07/07 03:20:55;;;;;;;1.10;1.00;;;14.00;97.30;;;;;;4998646;28;20429;-80
2022/07/07 03:23:21;;;;;;;0.83;0.80;;;14.00;97.30;;;;;;4999130;28;20189;-79
2022/07/07 03:25:47;;;;;;;1.03;0.97;;;14.00;97.30;;;;;;4999040;28;20215;-81
2022/07/07 03:28:13;;;;;;;1.03;1.00;;;14.00;97.30;;;;;;5001447;28;20202;-80
2022/07/07 03:30:38;;;;;;;1.00;0.90;;;14.00;97.30;;;;;;5001391;28;20863;-79
2022/07/07 03:33:04;;;;;;;1.10;1.00;;;13.90;97.30;;;;;;5000704;28;20594;-80
2022/07/07 03:35:29;;;;;;;1.33;1.23;;;13.90;97.30;;;;;;4998113;28;20182;-80
2022/07/07 03:37:55;;;;;;;1.30;0.97;;;13.90;97.30;;;;;;4999200;28;20209;-80
2022/07/07 03:40:21;;;;;;;0.80;0.80;;;13.90;97.30;;;;;;4998890;28;20182;-80
2022/07/07 03:42:46;;;;;;;0.90;0.87;;;13.90;97.30;;;;;;4998361;28;20205;-80
2022/07/07 03:45:12;;;;;;;1.00;0.90;;;13.90;97.30;;;;;;4998816;28;20201;-80
2022/07/07 03:47:38;;;;;;;0.90;0.80;;;13.90;97.30;;;;;;4998520;28;20697;-80
2022/07/07 03:50:04;;;;;;;1.00;0.90;;;13.90;97.30;;;;;;4998919;28;20258;-80
2022/07/07 03:52:29;;;;;;;0.90;0.90;;;13.90;97.30;;;;;;5000393;28;20272;-82
2022/07/07 03:54:55;;;;;;;1.00;0.90;;;13.90;97.30;;;;;;4999568;28;20471;-83
2022/07/07 03:57:20;;;;;;;0.90;0.80;;;13.90;97.30;;;;;;5000139;28;20244;-83
2022/07/07 03:59:46;;;;;;;1.03;0.97;;;13.90;97.30;;;;;;4999534;28;20174;-80
2022/07/07 04:02:12;;;;;;;0.80;0.80;;;14.00;97.30;;;;;;4997799;28;20254;-80
2022/07/07 04:04:37;;;;;;;1.00;0.90;;;14.00;97.30;;;;;;4996151;28;20547;-81
2022/07/07 04:07:04;;;;;;;0.87;0.83;;;14.00;97.30;;;;;;4999629;28;20225;-82
2022/07/07 04:09:30;;;;;;;1.10;1.00;;;14.00;97.30;;;;;;4996782;28;20185;-81
2022/07/07 04:11:57;;;;;;;1.03;1.00;;;14.00;97.30;;;;;;5002375;28;20430;-83
2022/07/07 04:14:22;;;;;;;1.13;1.03;;;14.00;97.30;;;;;;5003038;28;20417;-82
2022/07/07 04:16:48;;;;;;;0.90;0.90;;;14.00;97.30;;;;;;5001981;28;20435;-82
2022/07/07 04:19:14;;;;;;;0.93;0.87;;;14.00;97.30;;;;;;5003675;28;20219;-80
2022/07/07 04:21:40;;;;;;;1.20;1.10;;;14.00;97.30;;;;;;5000992;28;20531;-79
2022/07/07 04:24:05;;;;;;;0.93;0.87;;;14.00;97.30;;;;;;4998630;28;20417;-80
2022/07/07 04:26:31;;;;;;;1.10;1.00;;;14.00;97.30;;;;;;4998029;28;20237;-80
2022/07/07 04:28:56;;;;;;;1.33;1.23;;;14.00;97.30;;;;;;4996333;28;20198;-80
2022/07/07 04:31:22;;;;;;;1.00;0.90;;;14.10;97.30;;;;;;4996577;28;20181;-80
2022/07/07 04:33:48;;;;;;;1.23;1.13;;;14.10;97.30;;;;;;4997523;28;20690;-80
2022/07/07 04:36:14;;;;;;;1.03;0.93;;;14.10;97.30;;;;;;4997646;28;20178;-80
2022/07/07 04:38:40;;;;;;;0.93;0.83;;;14.10;97.30;;;;;;4994845;28;20625;-80
2022/07/07 04:41:05;;;;;;;1.00;0.90;;;14.10;97.30;;;;;;4996224;28;20413;-80
2022/07/07 04:43:31;;;;;;;0.90;0.80;;;14.20;97.30;;;;;;4995177;28;20188;-79
2022/07/07 04:45:56;;;;;;;1.20;1.10;;;14.20;97.30;;;;;;4994414;28;20206;-80
2022/07/07 04:48:22;;;;;;;0.73;0.70;;;14.20;97.30;;;;;;4994029;28;20332;-77
2022/07/07 04:50:48;;;;;;;0.90;0.80;;;14.20;97.30;;;;;;4995200;28;20252;-80
2022/07/07 04:53:14;;;;;;;1.00;0.90;;;14.20;97.30;;;;;;4997248;28;20181;-79
2022/07/07 04:55:39;;;;;;;0.90;0.80;;;14.20;97.30;;;;;;4996054;28;20413;-80
2022/07/07 04:58:05;;;;;;;1.10;1.00;;;14.10;97.30;;;;;;4995655;28;20694;-80
2022/07/07 05:00:30;;;;;;;1.20;1.10;;;14.10;97.30;;;;;;4997161;28;20170;-80
2022/07/07 05:02:56;;;;;;;0.93;0.90;;;14.10;97.30;;;;;;4998404;28;20600;-80
2022/07/07 05:05:22;;;;;;;1.13;1.10;;;14.10;97.30;;;;;;4999092;28;20219;-79
2022/07/07 05:07:47;;;;;;;1.10;1.00;;;14.10;97.30;;;;;;5016480;28;20200;-79
2022/07/07 05:10:13;;;;;;;2.13;1.33;;;14.00;97.30;;;;;;4999235;28;20188;-80
2022/07/07 05:12:38;;;;;;;1.10;1.00;;;13.90;97.30;;;;;;4996696;28;20192;-79
2022/07/07 05:15:04;;;;;;;1.07;1.00;;;13.90;97.30;;;;;;5012903;28;20172;-79
2022/07/07 05:17:30;;;;;;;1.07;0.97;;;13.90;97.30;;;;;;4995288;28;20205;-79
2022/07/07 05:19:55;;;;;;;1.10;1.00;;;13.80;97.30;;;;;;5011625;28;20756;-79
2022/07/07 05:22:21;;;;;;;1.00;0.90;;;13.80;97.30;;;;;;4993493;28;20584;-78
2022/07/07 05:24:46;;;;;;;1.60;1.50;;;13.80;97.30;;;;;;5010103;28;20211;-79
2022/07/07 05:27:12;;;;;;;1.10;1.00;;;13.80;97.30;;;;;;5010547;28;20213;-79
2022/07/07 05:29:37;;;;;;;1.10;1.00;;;13.70;97.30;;;;;;4993568;28;20183;-78
2022/07/07 05:32:03;;;;;;;1.10;1.00;;;13.70;97.30;;;;;;4992918;28;20658;-78
2022/07/07 05:34:29;;;;;;;1.77;1.67;;;13.70;97.30;;;;;;4993140;28;20555;-79
2022/07/07 05:36:54;;;;;;;1.40;1.07;;;13.70;97.30;;;;;;4993423;28;20953;-79
2022/07/07 05:39:20;;;;;;;2.03;1.20;;;13.70;97.30;;;;;;4992760;28;20280;-78
2022/07/07 05:41:46;;;;;;;1.10;1.00;;;13.70;97.30;;;;;;5005246;28;20188;-78
2022/07/07 05:44:11;;;;;;;1.00;0.90;;;13.70;97.30;;;;;;5003535;28;20185;-78
2022/07/07 05:46:37;;;;;;;1.10;1.03;;;13.60;97.30;;;;;;4992880;28;20211;-78
2022/07/07 05:49:02;;;;;;;1.00;0.90;;;13.60;97.30;;;;;;5004179;28;20224;-79
2022/07/07 05:51:28;;;;;;;1.10;1.00;;;13.50;97.30;;;;;;4993532;28;20725;-79
2022/07/07 05:53:54;;;;;;;1.17;1.07;;;13.50;97.30;;;;;;4992668;28;20607;-78
2022/07/07 05:56:20;;;;;;;2.40;1.10;;;13.50;97.30;;;;;;4992536;28;20189;-78
2022/07/07 05:58:47;;;;;;;0.97;0.87;;;13.40;97.30;;;;;;4997173;28;20522;-79
2022/07/07 06:01:13;;;;;;;0.90;0.90;;;13.40;97.30;;;;;;5008641;28;20505;-78
2022/07/07 06:03:39;;;;;;;0.93;0.83;;;13.40;97.30;;;;;;4992663;28;20432;-78
2022/07/07 06:06:04;;;;;;;1.40;1.30;;;13.40;97.30;;;;;;4992358;28;20521;-78
2022/07/07 06:08:30;;;;;;;0.83;0.80;;;13.40;97.30;;;;;;4992130;28;20208;-77
2022/07/07 06:10:56;;;;;;;1.20;1.13;;;13.40;97.30;;;;;;4992057;28;20204;-78
2022/07/07 06:13:22;;;;;;;1.00;0.90;;;13.40;97.30;;;;;;4992594;28;20555;-78
2022/07/07 06:15:48;;;;;;;1.10;1.00;;;13.40;97.30;;;;;;4992749;28;20479;-78
2022/07/07 06:18:13;;;;;;;1.73;1.30;;;13.30;97.30;;;;;;5010289;28;20679;-78
2022/07/07 06:20:39;;;;;;;1.60;1.07;;;13.40;97.30;;;;;;4992489;28;20490;-78
2022/07/07 06:23:05;;;;;;;0.93;0.87;;;13.40;97.30;;;;;;4993580;28;20651;-78
2022/07/07 06:25:30;;;;;;;1.00;0.90;;;13.40;97.30;;;;;;4996176;28;20266;-79
2022/07/07 06:27:56;;;;;;;1.20;1.10;;;13.40;97.30;;;;;;4996514;28;20447;-78
2022/07/07 06:30:22;;;;;;;1.23;1.13;;;13.40;97.30;;;;;;4996508;28;20276;-78
2022/07/07 06:32:47;;;;;;;1.30;1.20;;;13.40;97.30;;;;;;4996737;28;20181;-79
2022/07/07 06:35:13;;;;;;;1.33;1.23;;;13.40;97.30;;;;;;4996437;28;20460;-79
2022/07/07 06:37:39;;;;;;;1.30;1.20;;;13.40;97.30;;;;;;4995695;28;20205;-79
2022/07/07 06:40:05;;;;;;;1.10;1.00;;;13.40;97.30;;;;;;4998207;28;20185;-79
2022/07/07 06:42:31;;;;;;;1.10;1.00;;;13.40;97.30;;;;;;5013475;28;20260;-79
2022/07/07 06:44:56;;;;;;;1.20;1.10;;;13.40;97.30;;;;;;5011402;28;20507;-78
2022/07/07 06:47:22;;;;;;;1.30;1.20;;;13.50;97.30;;;;;;4995977;28;20506;-78
2022/07/07 06:49:48;;;;;;;1.80;1.70;;;13.50;97.30;;;;;;4995892;28;20235;-78
2022/07/07 06:52:17;;;;;;;1.40;1.30;;;13.50;97.30;;;;;;4995870;28;20169;-79
2022/07/07 06:54:42;;;;;;;1.57;1.47;;;13.60;97.30;;;;;;4994936;28;20427;-78
2022/07/07 06:57:08;;;;;;;1.30;1.10;;;13.60;97.30;;;;;;5013718;28;21181;-79
2022/07/07 06:59:34;;;;;;;11.93;2.63;;;13.60;97.30;;;;;;4997087;28;20174;-78
2022/07/07 07:02:00;;;;;;;2.07;1.93;;;13.70;97.30;;;;;;4995096;28;20511;-78
2022/07/07 07:04:26;;;;;;;8.73;2.47;;;13.70;97.30;;;;;;4995900;28;20198;-77
2022/07/07 07:06:52;;;;;;;2.93;2.80;;;13.70;97.30;;;;;;4993530;28;20221;-78
2022/07/07 07:09:17;;;;;;;2.93;2.57;;;13.70;97.30;;;;;;4997320;28;20428;-78
2022/07/07 07:11:43;;;;;;;1.93;1.83;;;13.70;97.30;;;;;;4988682;28;20252;-78
2022/07/07 07:14:08;;;;;;;3.50;2.93;;;13.70;97.30;;;;;;4998944;28;20178;-79
2022/07/07 07:16:35;;;;;;;2.70;2.50;;;13.70;97.30;;;;;;5000310;28;20186;-79
2022/07/07 07:19:00;;;;;;;1.93;1.67;;;13.70;97.30;;;;;;4998454;28;20216;-77
2022/07/07 07:21:26;;;;;;;1.47;1.37;;;13.70;97.30;;;;;;5000048;28;20445;-78
2022/07/07 07:23:52;;;;;;;4.70;1.93;;;13.70;97.30;;;;;;4998660;28;20186;-78
2022/07/07 07:26:18;;;;;;;1.53;1.50;;;13.70;97.30;;;;;;4999235;28;20224;-78
2022/07/07 07:28:47;;;;;;;2.07;1.80;;;13.70;97.30;;;;;;4996852;28;20213;-79
2022/07/07 07:31:13;;;;;;;2.10;1.50;;;13.80;97.30;;;;;;4989887;28;20186;-80
2022/07/07 07:33:39;;;;;;;1.50;1.40;;;13.80;97.30;;;;;;4994846;28;20477;-81
2022/07/07 07:36:07;;;;;;;2.63;2.43;;;13.80;97.30;;;;;;4994250;28;20437;-80
2022/07/07 07:38:35;;;;;;;3.60;2.03;;;13.80;97.30;;;;;;4994716;28;20205;-80
2022/07/07 07:41:02;;;;;;;1.37;1.27;;;13.80;97.30;;;;;;4994538;28;20432;-80
2022/07/07 07:43:28;;;;;;;2.73;1.53;;;13.80;97.30;;;;;;4994534;28;20509;-80
2022/07/07 07:45:53;;;;;;;5.40;2.33;;;13.80;97.30;;;;;;4996238;28;20904;-79
2022/07/07 07:48:19;;;;;;;1.63;1.27;;;13.80;97.30;;;;;;4994129;28;20288;-80
2022/07/07 07:50:44;;;;;;;1.20;1.13;;;13.90;97.30;;;;;;4994464;28;20177;-80
2022/07/07 07:53:10;;;;;;;1.30;1.20;;;13.90;97.30;;;;;;4994402;28;20244;-80
2022/07/07 07:55:36;;;;;;;1.47;1.33;;;13.90;97.30;;;;;;4994315;28;20627;-81
2022/07/07 07:58:02;;;;;;;1.50;1.40;;;13.90;97.30;;;;;;4993979;28;20245;-80
2022/07/07 08:00:27;;;;;;;1.00;1.00;;;13.90;97.30;;;;;;4994551;28;20452;-79
2022/07/07 08:02:53;;;;;;;1.17;1.07;;;13.90;97.30;;;;;;4993474;28;20235;-80
2022/07/07 08:05:19;;;;;;;1.30;1.20;;;13.90;97.30;;;;;;4994379;28;20241;-81
2022/07/07 08:07:45;;;;;;;0.97;0.90;;;14.00;97.30;;;;;;4994594;28;20197;-80
2022/07/07 08:10:13;;;;;;;1.20;1.10;;;14.00;97.30;;;;;;4994789;28;20182;-81
2022/07/07 08:12:39;;;;;;;1.30;1.10;;;14.00;97.30;;;;;;4995885;28;20425;-81
2022/07/07 08:15:06;;;;;;;1.73;1.40;;;14.00;97.30;;;;;;4995116;28;20883;-81
2022/07/07 08:17:32;;;;;;;1.63;1.53;;;14.00;97.30;;;;;;4996323;28;20457;-80
2022/07/07 08:19:58;;;;;;;1.37;1.27;;;14.00;97.30;;;;;;4995016;28;20417;-81
2022/07/07 08:22:24;;;;;;;1.63;1.20;;;14.10;97.30;;;;;;4993601;28;21018;-80
2022/07/07 08:24:49;;;;;;;2.10;1.40;;;14.10;97.30;;;;;;4994646;28;20429;-80
2022/07/07 08:27:15;;;;;;;1.33;1.23;;;14.10;97.30;;;;;;4994070;28;20208;-81
2022/07/07 08:29:41;;;;;;;2.10;1.93;;;14.10;97.30;;;;;;4993736;28;20542;-81
2022/07/07 08:32:08;;;;;;;5.43;1.73;;;14.10;97.30;;;;;;4994249;28;20553;-80
2022/07/07 08:34:34;;;;;;;1.37;1.30;;;14.10;97.30;;;;;;4995646;28;20442;-80
2022/07/07 08:36:59;;;;;;;5.47;1.87;;;14.10;97.30;;;;;;4993279;28;20475;-80
2022/07/07 08:39:25;;;;;;;1.67;1.30;;;14.10;97.30;;;;;;4994041;28;20504;-80
2022/07/07 08:41:51;;;;;;;3.73;2.47;;;14.20;97.30;;;;;;4993819;28;20666;-81
2022/07/07 08:44:18;;;;;;;1.27;1.20;;;14.20;97.30;;;;;;4993041;28;20189;-80
2022/07/07 08:46:44;;;;;;;1.30;1.20;;;14.20;97.30;;;;;;4993447;28;20228;-80
2022/07/07 08:49:10;;;;;;;2.60;1.30;;;14.30;97.30;;;;;;4994593;28;20409;-79
2022/07/07 08:51:44;;;;;;;4.03;1.70;;;14.40;97.30;;;;;;4992597;28;20613;-78
2022/07/07 08:54:12;;;;;;;1.90;1.53;;;14.40;97.30;;;;;;4993519;28;20404;-79
2022/07/07 08:56:38;;;;;;;1.70;1.60;;;14.40;97.30;;;;;;4992630;28;20489;-80
2022/07/07 08:59:05;;;;;;;1.47;1.37;;;14.50;97.30;;;;;;4990210;28;20433;-78
2022/07/07 09:01:31;;;;;;;1.63;1.40;;;14.50;97.30;;;;;;4990357;28;20531;-78
2022/07/07 09:03:57;;;;;;;2.20;2.00;;;14.60;97.30;;;;;;4990330;28;20421;-79
2022/07/07 09:06:22;;;;;;;1.27;1.20;;;14.50;97.30;;;;;;4991729;28;20250;-78
2022/07/07 09:08:48;;;;;;;3.53;3.33;;;14.50;97.30;;;;;;4990609;28;20289;-79
2022/07/07 09:11:13;;;;;;;3.90;1.50;;;14.60;97.30;;;;;;4990229;28;20632;-79
2022/07/07 09:13:39;;;;;;;1.00;0.90;;;14.50;97.30;;;;;;4990458;28;20545;-79
2022/07/07 09:16:14;;;;;;;3.00;1.40;;;14.60;97.30;;;;;;4989538;28;20181;-79
2022/07/07 09:18:49;;;;;;;1.47;1.37;;;14.60;97.30;;;;;;4990206;28;20515;-79
2022/07/07 09:21:32;;;;;;;1.57;1.40;;;14.60;97.30;;;;;;4990254;28;20432;-79
2022/07/07 09:24:02;;;;;;;2.10;1.33;;;14.60;97.30;;;;;;4989835;28;20429;-79
2022/07/07 09:26:41;;;;;;;1.50;1.43;;;14.60;97.30;;;;;;4989738;28;20854;-79
2022/07/07 09:29:09;;;;;;;1.73;1.63;;;14.70;97.30;;;;;;4990375;28;20429;-79
2022/07/07 09:31:54;;;;;;;1.93;1.83;;;14.70;97.30;;;;;;4989937;28;20941;-79
2022/07/07 09:34:21;;;;;;;1.80;1.70;;;14.70;97.30;;;;;;4991631;28;20415;-79
2022/07/07 09:39:41;;;;;;;3.20;1.90;;;14.80;97.30;;;;;;4991008;28;20505;-79
2022/07/07 09:42:31;;;;;;;1.30;1.20;;;14.80;97.30;;;;;;4990056;28;20918;-79
2022/07/07 09:45:01;;;;;;;3.23;1.47;;;14.90;97.30;;;;;;4979914;28;20421;-79
2022/07/07 09:47:28;;;;;;;7.03;1.97;;;14.90;97.30;;;;;;4989572;28;20966;-79
2022/07/07 09:49:59;;;;;;;1.40;1.30;;;15.00;97.30;;;;;;4989558;28;20424;-79
2022/07/07 09:52:26;;;;;;;1.13;1.03;;;15.00;97.30;;;;;;4989941;28;20511;-79
2022/07/07 09:54:53;;;;;;;1.40;1.30;;;15.10;97.30;;;;;;4990204;28;20412;-79
2022/07/07 09:57:19;;;;;;;4.10;2.63;;;15.10;97.30;;;;;;4991011;28;20436;-79
2022/07/07 09:59:45;;;;;;;2.57;2.00;;;15.20;97.30;;;;;;4993814;28;20473;-78
2022/07/07 10:02:20;;;;;;;3.27;2.17;;;15.20;97.30;;;;;;4993245;28;20507;-79
2022/07/07 10:04:48;;;;;;;1.70;1.60;;;15.20;97.30;;;;;;4993492;28;20237;-78
2022/07/07 10:07:18;;;;;;;1.57;1.53;;;15.20;97.30;;;;;;4993301;28;20885;-79
2022/07/07 10:09:44;;;;;;;1.40;1.30;;;15.20;97.30;;;;;;4993328;28;20417;-78
2022/07/07 10:12:11;;;;;;;1.80;1.47;;;15.30;97.30;;;;;;4993376;28;20491;-79
2022/07/07 10:14:43;;;;;;;1.80;1.70;;;15.20;97.30;;;;;;4993508;28;20417;-80
2022/07/07 10:17:10;;;;;;;1.90;1.80;;;15.20;97.30;;;;;;4993378;28;20567;-79
2022/07/07 10:19:37;;;;;;;1.60;1.50;;;15.30;97.30;;;;;;4993529;28;20694;-79
2022/07/07 10:22:04;;;;;;;3.43;2.60;;;15.30;97.30;;;;;;4995042;28;20409;-79
2022/07/07 10:24:32;;;;;;;7.80;2.37;;;15.30;97.30;;;;;;4993388;28;20523;-79
2022/07/07 10:27:00;;;;;;;1.57;1.50;;;15.30;97.30;;;;;;4992767;28;20460;-78
2022/07/07 10:29:44;;;;;;;2.17;2.00;;;15.30;97.30;;;;;;4994532;28;20415;-78
2022/07/07 10:32:33;;;;;;;1.43;1.37;;;15.30;97.30;;;;;;4993552;28;20515;-79
2022/07/07 10:35:09;;;;;;;1.40;1.30;;;15.40;97.30;;;;;;4993241;28;20424;-79
2022/07/07 10:37:47;;;;;;;2.67;1.20;;;15.40;97.30;;;;;;4992972;28;21046;-78
2022/07/07 10:40:23;;;;;;;1.63;1.30;;;15.50;97.30;;;;;;4993173;28;20788;-79
2022/07/07 10:43:18;;;;;;;1.50;1.40;;;15.50;97.30;;;;;;4993161;28;20459;-81
2022/07/07 10:45:53;;;;;;;4.03;1.80;;;15.60;97.30;;;;;;4993300;28;20497;-79
2022/07/07 10:48:44;;;;;;;2.07;1.93;;;15.70;97.30;;;;;;4993122;28;20458;-79
2022/07/07 10:51:27;;;;;;;1.47;1.37;;;15.70;97.30;;;;;;4992756;28;20956;-79
2022/07/07 10:54:02;;;;;;;1.57;1.30;;;15.70;97.30;;;;;;4992069;28;20470;-79
2022/07/07 10:56:48;;;;;;;1.50;1.40;;;15.70;97.30;;;;;;4992606;28;20506;-79
2022/07/07 10:59:13;;;;;;;3.07;1.57;;;15.70;97.30;;;;;;4993366;28;20429;-79
2022/07/07 11:02:02;;;;;;;1.10;1.00;;;15.70;97.30;;;;;;4992909;28;20460;-79
2022/07/07 11:04:48;;;;;;;1.60;1.50;;;15.70;97.30;;;;;;4992476;28;20264;-79
2022/07/07 11:07:16;;;;;;;2.80;1.93;;;15.80;97.30;;;;;;4993612;28;20464;-79
2022/07/07 11:09:59;;;;;;;2.77;1.87;;;15.90;97.30;;;;;;4992005;28;20445;-79
2022/07/07 11:12:39;;;;;;;1.53;1.50;;;15.90;97.30;;;;;;4993890;28;20424;-79
2022/07/07 11:15:20;;;;;;;2.60;2.07;;;15.90;97.30;;;;;;4992709;28;20451;-79
2022/07/07 11:17:49;;;;;;;1.50;1.40;;;15.90;97.30;;;;;;4992405;28;20467;-79
2022/07/07 11:20:20;;;;;;;2.17;2.00;;;16.00;97.30;;;;;;4996701;28;20420;-80
2022/07/07 11:23:10;;;;;;;2.87;2.07;;;16.10;97.30;;;;;;4996097;28;20443;-80
2022/07/07 11:25:37;;;;;;;2.90;2.37;;;16.20;97.30;;;;;;4982191;28;20445;-80
2022/07/07 11:28:05;;;;;;;1.93;1.87;;;16.20;97.30;;;;;;4995498;28;20437;-79
2022/07/07 11:30:30;;;;;;;2.10;1.63;;;16.30;97.30;;;;;;4996347;28;20483;-82
2022/07/07 11:32:58;;;;;;;2.07;1.93;;;16.40;97.30;;;;;;4995123;28;20755;-79
2022/07/07 11:35:27;;;;;;;1.67;1.37;;;16.50;97.30;;;;;;4996809;28;20197;-79
2022/07/07 11:37:52;;;;;;;2.90;1.83;;;16.60;97.30;;;;;;4994498;28;20436;-80
2022/07/07 11:40:18;;;;;;;1.57;1.47;;;16.80;97.30;;;;;;4992525;28;20800;-80
2022/07/07 11:42:44;;;;;;;1.80;1.50;;;16.90;97.30;;;;;;4993366;28;20261;-79
2022/07/07 11:45:27;;;;;;;2.83;2.63;;;17.00;97.30;;;;;;4991985;28;20186;-81
2022/07/07 11:47:56;;;;;;;1.97;1.27;;;17.20;97.30;;;;;;4981919;28;20272;-79
2022/07/07 11:50:23;;;;;;;2.07;1.80;;;17.40;97.30;;;;;;4991781;28;20421;-80
2022/07/07 11:52:53;;;;;;;2.20;2.03;;;17.50;97.30;;;;;;4992256;28;20442;-79
2022/07/07 11:55:20;;;;;;;2.20;2.00;;;17.50;97.30;;;;;;4991310;28;20417;-80
2022/07/07 11:57:50;;;;;;;1.97;1.33;;;17.80;97.30;;;;;;4992400;28;20963;-79
2022/07/07 12:00:18;;;;;;;2.60;2.40;;;17.90;97.30;;;;;;4980158;28;20452;-79
2022/07/07 12:02:47;;;;;;;1.27;1.27;;;17.90;97.30;;;;;;4990482;28;20456;-79
2022/07/07 12:05:24;;;;;;;1.87;1.60;;;17.80;97.30;;;;;;4991332;28;20431;-79
2022/07/07 12:08:00;;;;;;;2.23;2.07;;;17.80;97.30;;;;;;4991284;28;20511;-79
2022/07/07 12:10:31;;;;;;;3.77;1.70;;;17.70;97.30;;;;;;4991545;28;21032;-80
2022/07/07 12:13:00;;;;;;;1.33;1.30;;;17.70;97.30;;;;;;4991258;28;20425;-81
2022/07/07 12:15:28;;;;;;;2.60;2.50;;;17.70;97.30;;;;;;4992403;28;20491;-80
2022/07/07 12:17:54;;;;;;;2.63;1.83;;;17.60;97.30;;;;;;4990664;28;20447;-79
2022/07/07 12:20:20;;;;;;;1.40;1.30;;;17.60;97.30;;;;;;4989603;28;20417;-79
2022/07/07 12:22:53;;;;;;;1.97;1.40;;;17.60;97.30;;;;;;4991297;28;21017;-80
2022/07/07 12:25:19;;;;;;;3.10;1.80;;;17.70;97.30;;;;;;4986787;28;20210;-79
2022/07/07 12:27:59;;;;;;;1.97;1.63;;;17.80;97.30;;;;;;4991263;28;20978;-79
2022/07/07 12:30:33;;;;;;;1.77;1.67;;;17.90;97.30;;;;;;4988665;28;20178;-79
2022/07/07 12:32:59;;;;;;;1.23;1.20;;;18.00;97.30;;;;;;4990939;28;20425;-81
2022/07/07 12:35:35;;;;;;;1.60;1.50;;;17.90;97.30;;;;;;4991568;28;20431;-79
2022/07/07 12:38:03;;;;;;;2.13;1.90;;;17.90;97.30;;;;;;4990359;28;20440;-81
2022/07/07 12:40:31;;;;;;;1.30;1.23;;;17.90;97.30;;;;;;4986936;28;20417;-80
2022/07/07 12:42:58;;;;;;;1.93;1.80;;;18.00;97.30;;;;;;4982898;28;20461;-78
2022/07/07 12:45:24;;;;;;;1.83;1.73;;;18.20;97.30;;;;;;4989410;28;20524;-79
2022/07/07 12:47:55;;;;;;;4.90;1.63;;;18.40;97.30;;;;;;4990083;28;20453;-80
2022/07/07 12:50:22;;;;;;;1.20;1.10;;;18.60;97.30;;;;;;4989908;28;20212;-80
2022/07/07 12:53:05;;;;;;;1.57;1.43;;;18.80;97.30;;;;;;4990885;28;20425;-79